Airport View

Enter AWOS ICAO identifier for current METAR.

ex. KFNL

KORF 242351Z 08010KT 6SM BR OVC007 15/13 A3015 RMK AO2 SLP207 T01500133 10167 20150 58010

25 May 2020 00:46

Phone: 757-460-9348

Other Area AWOS: KNGU - KNTU - KNFE - KLFI

TAF AMD KORF 250023Z 2500/2524 08010KT 5SM BR OVC007 FM250500 04005KT 3SM BR OVC004 FM251600 03007KT P6SM BKN010 OVC030 FM251800 06006KT P6SM BKN040